Terminal Aerodrome Forecast
Issued by NWS

Home | Current Version | Previous Version | Text Only | Print | Product List | Glossary On
Versions: 1 2 3 4 5 6 7 8 9 10 11 12 13 14 15 16 17
000
FTUS46 KSEW 231506 AAA
TAFOLM
TAF AMD
KOLM 231506Z 2315/2412 22004KT P6SM FEW015 BKN040
     FM231800 25006KT P6SM FEW022 BKN045
     FM232000 34005KT P6SM SCT045
     FM240200 35005KT P6SM SCT040=

USA.gov is the U.S. government's official web portal to all federal, state and local government web resources and services.